sensor_id;sensor_type;location;lat;lon;timestamp;temperature;humidity
11615;DHT22;5863;52.832;4.758;2022-09-30T00:01:32;11.50;99.90
11615;DHT22;5863;52.832;4.758;2022-09-30T00:04:01;11.50;99.90
11615;DHT22;5863;52.832;4.758;2022-09-30T00:06:29;11.50;99.90
11615;DHT22;5863;52.832;4.758;2022-09-30T00:08:56;11.50;99.90
11615;DHT22;5863;52.832;4.758;2022-09-30T00:11:25;11.40;99.90
11615;DHT22;5863;52.832;4.758;2022-09-30T00:13:54;11.40;99.90
11615;DHT22;5863;52.832;4.758;2022-09-30T00:16:23;11.40;99.90
11615;DHT22;5863;52.832;4.758;2022-09-30T00:18:53;11.40;99.90
11615;DHT22;5863;52.832;4.758;2022-09-30T00:21:21;11.40;99.90
11615;DHT22;5863;52.832;4.758;2022-09-30T00:23:49;11.40;99.90
11615;DHT22;5863;52.832;4.758;2022-09-30T00:26:18;11.30;99.90
11615;DHT22;5863;52.832;4.758;2022-09-30T00:28:49;11.20;99.90
11615;DHT22;5863;52.832;4.758;2022-09-30T00:31:18;11.20;99.90
11615;DHT22;5863;52.832;4.758;2022-09-30T00:33:46;11.20;99.90
11615;DHT22;5863;52.832;4.758;2022-09-30T00:36:33;11.10;99.90
11615;DHT22;5863;52.832;4.758;2022-09-30T00:39:00;11.10;99.90
11615;DHT22;5863;52.832;4.758;2022-09-30T00:41:27;11.10;99.90
11615;DHT22;5863;52.832;4.758;2022-09-30T00:43:54;11.10;99.90
11615;DHT22;5863;52.832;4.758;2022-09-30T00:46:28;11.10;99.90
11615;DHT22;5863;52.832;4.758;2022-09-30T00:48:56;11.00;99.90
11615;DHT22;5863;52.832;4.758;2022-09-30T00:51:29;11.00;99.90
11615;DHT22;5863;52.832;4.758;2022-09-30T00:54:00;10.90;99.90
11615;DHT22;5863;52.832;4.758;2022-09-30T00:56:30;10.90;99.90
11615;DHT22;5863;52.832;4.758;2022-09-30T00:59:03;10.90;99.90
11615;DHT22;5863;52.832;4.758;2022-09-30T01:01:31;10.90;99.90
11615;DHT22;5863;52.832;4.758;2022-09-30T01:04:01;10.80;99.90
11615;DHT22;5863;52.832;4.758;2022-09-30T01:06:29;10.80;99.90
11615;DHT22;5863;52.832;4.758;2022-09-30T01:08:57;10.80;99.90
11615;DHT22;5863;52.832;4.758;2022-09-30T01:11:26;10.80;99.90
11615;DHT22;5863;52.832;4.758;2022-09-30T01:13:55;10.80;99.90
11615;DHT22;5863;52.832;4.758;2022-09-30T01:16:42;10.80;99.90
11615;DHT22;5863;52.832;4.758;2022-09-30T01:19:55;10.80;99.90
11615;DHT22;5863;52.832;4.758;2022-09-30T01:22:38;10.80;99.90
11615;DHT22;5863;52.832;4.758;2022-09-30T01:25:30;10.70;99.90
11615;DHT22;5863;52.832;4.758;2022-09-30T01:28:32;10.70;99.90
11615;DHT22;5863;52.832;4.758;2022-09-30T01:31:14;10.60;99.90
11615;DHT22;5863;52.832;4.758;2022-09-30T01:33:46;10.70;99.90
11615;DHT22;5863;52.832;4.758;2022-09-30T01:36:27;10.60;99.90
11615;DHT22;5863;52.832;4.758;2022-09-30T01:39:04;10.60;99.90
11615;DHT22;5863;52.832;4.758;2022-09-30T01:41:41;10.60;99.90
11615;DHT22;5863;52.832;4.758;2022-09-30T01:44:13;10.60;99.90
11615;DHT22;5863;52.832;4.758;2022-09-30T01:46:47;10.60;99.90
11615;DHT22;5863;52.832;4.758;2022-09-30T01:49:20;10.60;99.90
11615;DHT22;5863;52.832;4.758;2022-09-30T01:51:56;10.50;99.90
11615;DHT22;5863;52.832;4.758;2022-09-30T01:54:29;10.50;99.90
11615;DHT22;5863;52.832;4.758;2022-09-30T01:57:02;10.50;99.90
11615;DHT22;5863;52.832;4.758;2022-09-30T01:59:33;10.40;99.90
11615;DHT22;5863;52.832;4.758;2022-09-30T02:02:07;10.50;99.90
11615;DHT22;5863;52.832;4.758;2022-09-30T02:04:37;10.40;99.90
11615;DHT22;5863;52.832;4.758;2022-09-30T02:07:11;10.60;99.90
11615;DHT22;5863;52.832;4.758;2022-09-30T02:09:42;10.40;99.90
11615;DHT22;5863;52.832;4.758;2022-09-30T02:12:16;10.30;99.90
11615;DHT22;5863;52.832;4.758;2022-09-30T02:14:47;10.30;99.90
11615;DHT22;5863;52.832;4.758;2022-09-30T02:17:19;10.30;99.90
11615;DHT22;5863;52.832;4.758;2022-09-30T02:19:51;10.30;99.90
11615;DHT22;5863;52.832;4.758;2022-09-30T02:22:24;10.30;99.90
11615;DHT22;5863;52.832;4.758;2022-09-30T02:24:58;10.30;99.90
11615;DHT22;5863;52.832;4.758;2022-09-30T02:27:28;10.30;99.90
11615;DHT22;5863;52.832;4.758;2022-09-30T02:29:59;10.20;99.90
11615;DHT22;5863;52.832;4.758;2022-09-30T02:32:34;10.10;99.90
11615;DHT22;5863;52.832;4.758;2022-09-30T02:35:06;10.20;99.90
11615;DHT22;5863;52.832;4.758;2022-09-30T02:37:36;10.20;99.90
11615;DHT22;5863;52.832;4.758;2022-09-30T02:40:07;10.10;99.90
11615;DHT22;5863;52.832;4.758;2022-09-30T02:42:37;10.10;99.90
11615;DHT22;5863;52.832;4.758;2022-09-30T02:45:08;10.10;99.90
11615;DHT22;5863;52.832;4.758;2022-09-30T02:47:47;10.10;99.90
11615;DHT22;5863;52.832;4.758;2022-09-30T02:50:22;10.00;99.90
11615;DHT22;5863;52.832;4.758;2022-09-30T02:53:11;10.00;99.90
11615;DHT22;5863;52.832;4.758;2022-09-30T02:55:46;10.00;99.90
11615;DHT22;5863;52.832;4.758;2022-09-30T02:58:19;9.90;99.90
11615;DHT22;5863;52.832;4.758;2022-09-30T03:00:46;9.90;99.90
11615;DHT22;5863;52.832;4.758;2022-09-30T03:03:19;10.00;99.90
11615;DHT22;5863;52.832;4.758;2022-09-30T03:05:48;10.00;99.90
11615;DHT22;5863;52.832;4.758;2022-09-30T03:08:15;9.90;99.90
11615;DHT22;5863;52.832;4.758;2022-09-30T03:10:43;9.90;99.90
11615;DHT22;5863;52.832;4.758;2022-09-30T03:13:31;9.90;99.90
11615;DHT22;5863;52.832;4.758;2022-09-30T03:16:10;9.80;99.90
11615;DHT22;5863;52.832;4.758;2022-09-30T03:18:59;9.80;99.90
11615;DHT22;5863;52.832;4.758;2022-09-30T03:21:43;9.90;99.90
11615;DHT22;5863;52.832;4.758;2022-09-30T03:24:35;9.90;99.90
11615;DHT22;5863;52.832;4.758;2022-09-30T03:27:12;9.90;99.90
11615;DHT22;5863;52.832;4.758;2022-09-30T03:29:46;9.90;99.90
11615;DHT22;5863;52.832;4.758;2022-09-30T03:32:31;9.90;99.90
11615;DHT22;5863;52.832;4.758;2022-09-30T03:35:10;9.80;99.90
11615;DHT22;5863;52.832;4.758;2022-09-30T03:37:46;9.80;99.90
11615;DHT22;5863;52.832;4.758;2022-09-30T03:40:22;9.80;99.90
11615;DHT22;5863;52.832;4.758;2022-09-30T03:42:54;9.80;99.90
11615;DHT22;5863;52.832;4.758;2022-09-30T03:45:28;9.80;99.90
11615;DHT22;5863;52.832;4.758;2022-09-30T03:48:00;9.80;99.90
11615;DHT22;5863;52.832;4.758;2022-09-30T03:50:31;9.70;99.90
11615;DHT22;5863;52.832;4.758;2022-09-30T03:52:59;9.70;99.90
11615;DHT22;5863;52.832;4.758;2022-09-30T03:55:26;9.70;99.90
11615;DHT22;5863;52.832;4.758;2022-09-30T03:57:55;9.70;99.90
11615;DHT22;5863;52.832;4.758;2022-09-30T04:00:22;9.70;99.90
11615;DHT22;5863;52.832;4.758;2022-09-30T04:02:49;9.60;99.90
11615;DHT22;5863;52.832;4.758;2022-09-30T04:05:16;9.60;99.90
11615;DHT22;5863;52.832;4.758;2022-09-30T04:07:44;9.60;99.90
11615;DHT22;5863;52.832;4.758;2022-09-30T04:10:11;9.70;99.90
11615;DHT22;5863;52.832;4.758;2022-09-30T04:12:38;9.60;99.90
11615;DHT22;5863;52.832;4.758;2022-09-30T04:15:06;9.60;99.90
11615;DHT22;5863;52.832;4.758;2022-09-30T04:17:33;9.60;99.90
11615;DHT22;5863;52.832;4.758;2022-09-30T04:19:59;9.50;99.90
11615;DHT22;5863;52.832;4.758;2022-09-30T04:22:27;9.50;99.90
11615;DHT22;5863;52.832;4.758;2022-09-30T04:24:55;9.40;99.90
11615;DHT22;5863;52.832;4.758;2022-09-30T04:27:22;9.40;99.90
11615;DHT22;5863;52.832;4.758;2022-09-30T04:29:48;9.40;99.90
11615;DHT22;5863;52.832;4.758;2022-09-30T04:32:15;9.40;99.90
11615;DHT22;5863;52.832;4.758;2022-09-30T04:34:42;9.40;99.90
11615;DHT22;5863;52.832;4.758;2022-09-30T04:37:08;9.40;99.90
11615;DHT22;5863;52.832;4.758;2022-09-30T04:39:35;9.30;99.90
11615;DHT22;5863;52.832;4.758;2022-09-30T04:42:03;9.30;99.90
11615;DHT22;5863;52.832;4.758;2022-09-30T04:44:30;9.30;99.90
11615;DHT22;5863;52.832;4.758;2022-09-30T04:46:57;9.30;99.90
11615;DHT22;5863;52.832;4.758;2022-09-30T04:49:25;9.30;99.90
11615;DHT22;5863;52.832;4.758;2022-09-30T04:51:52;9.30;99.90
11615;DHT22;5863;52.832;4.758;2022-09-30T04:54:19;9.30;99.90
11615;DHT22;5863;52.832;4.758;2022-09-30T04:56:45;9.30;99.90
11615;DHT22;5863;52.832;4.758;2022-09-30T04:59:13;9.20;99.90
11615;DHT22;5863;52.832;4.758;2022-09-30T05:01:41;9.20;99.90
11615;DHT22;5863;52.832;4.758;2022-09-30T05:04:09;9.20;99.90
11615;DHT22;5863;52.832;4.758;2022-09-30T05:06:37;9.20;99.90
11615;DHT22;5863;52.832;4.758;2022-09-30T05:09:05;9.20;99.90
11615;DHT22;5863;52.832;4.758;2022-09-30T05:11:32;9.20;99.90
11615;DHT22;5863;52.832;4.758;2022-09-30T05:13:58;9.10;99.90
11615;DHT22;5863;52.832;4.758;2022-09-30T05:16:26;9.10;99.90
11615;DHT22;5863;52.832;4.758;2022-09-30T05:18:53;9.10;99.90
11615;DHT22;5863;52.832;4.758;2022-09-30T05:21:20;9.10;99.90
11615;DHT22;5863;52.832;4.758;2022-09-30T05:23:46;9.10;99.90
11615;DHT22;5863;52.832;4.758;2022-09-30T05:26:13;9.10;99.90
11615;DHT22;5863;52.832;4.758;2022-09-30T05:28:40;9.20;99.90
11615;DHT22;5863;52.832;4.758;2022-09-30T05:31:07;9.20;99.90
11615;DHT22;5863;52.832;4.758;2022-09-30T05:33:35;9.20;99.90
11615;DHT22;5863;52.832;4.758;2022-09-30T05:36:04;9.20;99.90
11615;DHT22;5863;52.832;4.758;2022-09-30T05:38:31;9.20;99.90
11615;DHT22;5863;52.832;4.758;2022-09-30T05:41:05;9.10;99.90
11615;DHT22;5863;52.832;4.758;2022-09-30T05:43:33;9.10;99.90
11615;DHT22;5863;52.832;4.758;2022-09-30T05:46:00;9.10;99.90
11615;DHT22;5863;52.832;4.758;2022-09-30T05:48:27;9.10;99.90
11615;DHT22;5863;52.832;4.758;2022-09-30T05:50:56;9.10;99.90
11615;DHT22;5863;52.832;4.758;2022-09-30T05:53:25;9.10;99.90
11615;DHT22;5863;52.832;4.758;2022-09-30T05:55:53;9.10;99.90
11615;DHT22;5863;52.832;4.758;2022-09-30T05:58:20;9.00;99.90
11615;DHT22;5863;52.832;4.758;2022-09-30T06:00:47;9.00;99.90
11615;DHT22;5863;52.832;4.758;2022-09-30T06:03:15;9.10;99.90
11615;DHT22;5863;52.832;4.758;2022-09-30T06:05:43;9.10;99.90
11615;DHT22;5863;52.832;4.758;2022-09-30T06:08:12;9.20;99.90
11615;DHT22;5863;52.832;4.758;2022-09-30T06:10:41;9.20;99.90
11615;DHT22;5863;52.832;4.758;2022-09-30T06:13:10;9.30;99.90
11615;DHT22;5863;52.832;4.758;2022-09-30T06:15:38;9.30;99.90
11615;DHT22;5863;52.832;4.758;2022-09-30T06:18:06;9.30;99.90
11615;DHT22;5863;52.832;4.758;2022-09-30T06:20:35;9.40;99.90
11615;DHT22;5863;52.832;4.758;2022-09-30T06:23:03;9.40;99.90
11615;DHT22;5863;52.832;4.758;2022-09-30T06:25:31;9.40;99.90
11615;DHT22;5863;52.832;4.758;2022-09-30T06:27:58;9.50;99.90
11615;DHT22;5863;52.832;4.758;2022-09-30T06:30:25;9.50;99.90
11615;DHT22;5863;52.832;4.758;2022-09-30T06:32:55;9.50;99.90
11615;DHT22;5863;52.832;4.758;2022-09-30T06:35:24;9.60;99.90
11615;DHT22;5863;52.832;4.758;2022-09-30T06:37:53;9.60;99.90
11615;DHT22;5863;52.832;4.758;2022-09-30T06:40:20;9.70;99.90
11615;DHT22;5863;52.832;4.758;2022-09-30T06:42:49;9.70;99.90
11615;DHT22;5863;52.832;4.758;2022-09-30T06:45:16;9.80;99.90
11615;DHT22;5863;52.832;4.758;2022-09-30T06:47:44;9.80;99.90
11615;DHT22;5863;52.832;4.758;2022-09-30T06:50:12;9.80;99.90
11615;DHT22;5863;52.832;4.758;2022-09-30T06:52:39;9.90;99.90
11615;DHT22;5863;52.832;4.758;2022-09-30T06:55:06;9.90;99.90
11615;DHT22;5863;52.832;4.758;2022-09-30T06:57:33;10.00;99.90
11615;DHT22;5863;52.832;4.758;2022-09-30T07:00:03;10.00;99.90
11615;DHT22;5863;52.832;4.758;2022-09-30T07:02:30;10.10;99.90
11615;DHT22;5863;52.832;4.758;2022-09-30T07:04:59;10.10;99.90
11615;DHT22;5863;52.832;4.758;2022-09-30T07:07:27;10.20;99.90
11615;DHT22;5863;52.832;4.758;2022-09-30T07:09:53;10.30;99.90
11615;DHT22;5863;52.832;4.758;2022-09-30T07:12:23;10.30;99.90
11615;DHT22;5863;52.832;4.758;2022-09-30T07:14:50;10.40;99.90
11615;DHT22;5863;52.832;4.758;2022-09-30T07:17:18;10.50;99.90
11615;DHT22;5863;52.832;4.758;2022-09-30T07:19:45;10.60;99.90
11615;DHT22;5863;52.832;4.758;2022-09-30T07:22:11;10.70;99.90
11615;DHT22;5863;52.832;4.758;2022-09-30T07:24:54;10.80;99.90
11615;DHT22;5863;52.832;4.758;2022-09-30T07:27:21;11.10;99.90
11615;DHT22;5863;52.832;4.758;2022-09-30T07:29:48;11.50;99.90
11615;DHT22;5863;52.832;4.758;2022-09-30T07:32:15;11.80;99.90
11615;DHT22;5863;52.832;4.758;2022-09-30T07:34:45;12.00;99.90
11615;DHT22;5863;52.832;4.758;2022-09-30T07:37:14;12.40;99.90
11615;DHT22;5863;52.832;4.758;2022-09-30T07:39:42;13.10;99.90
11615;DHT22;5863;52.832;4.758;2022-09-30T07:42:09;13.80;99.90
11615;DHT22;5863;52.832;4.758;2022-09-30T07:44:37;14.50;99.90
11615;DHT22;5863;52.832;4.758;2022-09-30T07:47:06;15.00;99.90
11615;DHT22;5863;52.832;4.758;2022-09-30T07:49:34;15.30;99.90
11615;DHT22;5863;52.832;4.758;2022-09-30T07:52:02;15.60;99.90
11615;DHT22;5863;52.832;4.758;2022-09-30T07:54:31;15.80;99.90
11615;DHT22;5863;52.832;4.758;2022-09-30T07:57:00;15.90;99.90
11615;DHT22;5863;52.832;4.758;2022-09-30T07:59:28;16.10;99.90
11615;DHT22;5863;52.832;4.758;2022-09-30T08:01:55;16.30;99.90
11615;DHT22;5863;52.832;4.758;2022-09-30T08:04:23;16.80;99.90
11615;DHT22;5863;52.832;4.758;2022-09-30T08:06:51;17.40;99.90
11615;DHT22;5863;52.832;4.758;2022-09-30T08:09:22;17.90;99.90
11615;DHT22;5863;52.832;4.758;2022-09-30T08:11:49;18.20;99.90
11615;DHT22;5863;52.832;4.758;2022-09-30T08:14:18;18.20;99.90
11615;DHT22;5863;52.832;4.758;2022-09-30T08:16:45;18.20;99.90
11615;DHT22;5863;52.832;4.758;2022-09-30T08:19:13;18.00;99.90
11615;DHT22;5863;52.832;4.758;2022-09-30T08:21:41;17.90;99.90
11615;DHT22;5863;52.832;4.758;2022-09-30T08:24:08;17.60;99.90
11615;DHT22;5863;52.832;4.758;2022-09-30T08:26:36;17.30;99.90
11615;DHT22;5863;52.832;4.758;2022-09-30T08:29:03;17.10;99.90
11615;DHT22;5863;52.832;4.758;2022-09-30T08:31:30;16.80;99.90
11615;DHT22;5863;52.832;4.758;2022-09-30T08:33:58;16.70;99.90
11615;DHT22;5863;52.832;4.758;2022-09-30T08:36:28;16.50;99.90
11615;DHT22;5863;52.832;4.758;2022-09-30T08:38:54;16.50;99.90
11615;DHT22;5863;52.832;4.758;2022-09-30T08:41:31;16.40;99.90
11615;DHT22;5863;52.832;4.758;2022-09-30T08:44:12;16.30;99.90
11615;DHT22;5863;52.832;4.758;2022-09-30T08:46:46;16.20;99.90
11615;DHT22;5863;52.832;4.758;2022-09-30T08:49:28;16.20;99.90
11615;DHT22;5863;52.832;4.758;2022-09-30T08:52:00;16.20;99.90
11615;DHT22;5863;52.832;4.758;2022-09-30T08:54:30;16.20;99.90
11615;DHT22;5863;52.832;4.758;2022-09-30T08:56:58;16.10;99.90
11615;DHT22;5863;52.832;4.758;2022-09-30T08:59:31;16.10;99.90
11615;DHT22;5863;52.832;4.758;2022-09-30T09:02:08;16.10;99.90
11615;DHT22;5863;52.832;4.758;2022-09-30T09:04:40;16.00;99.90
11615;DHT22;5863;52.832;4.758;2022-09-30T09:07:12;16.00;99.90
11615;DHT22;5863;52.832;4.758;2022-09-30T09:09:49;16.00;99.90
11615;DHT22;5863;52.832;4.758;2022-09-30T09:12:30;16.00;99.90
11615;DHT22;5863;52.832;4.758;2022-09-30T09:15:09;16.00;99.90
11615;DHT22;5863;52.832;4.758;2022-09-30T09:17:53;16.00;99.90
11615;DHT22;5863;52.832;4.758;2022-09-30T09:20:25;16.10;99.90
11615;DHT22;5863;52.832;4.758;2022-09-30T09:22:54;16.10;99.90
11615;DHT22;5863;52.832;4.758;2022-09-30T09:25:24;16.10;99.90
11615;DHT22;5863;52.832;4.758;2022-09-30T09:27:55;16.10;99.90
11615;DHT22;5863;52.832;4.758;2022-09-30T09:30:25;16.20;99.90
11615;DHT22;5863;52.832;4.758;2022-09-30T09:32:55;16.20;99.90
11615;DHT22;5863;52.832;4.758;2022-09-30T09:35:32;16.30;99.90
11615;DHT22;5863;52.832;4.758;2022-09-30T09:38:05;16.40;99.90
11615;DHT22;5863;52.832;4.758;2022-09-30T09:40:58;16.40;99.90
11615;DHT22;5863;52.832;4.758;2022-09-30T09:43:49;16.50;99.90
11615;DHT22;5863;52.832;4.758;2022-09-30T09:46:22;16.50;99.90
11615;DHT22;5863;52.832;4.758;2022-09-30T09:49:13;16.60;99.90
11615;DHT22;5863;52.832;4.758;2022-09-30T09:52:02;16.60;99.90
11615;DHT22;5863;52.832;4.758;2022-09-30T09:54:32;16.70;99.90
11615;DHT22;5863;52.832;4.758;2022-09-30T09:57:04;16.80;99.90
11615;DHT22;5863;52.832;4.758;2022-09-30T09:59:33;16.90;99.90
11615;DHT22;5863;52.832;4.758;2022-09-30T10:02:01;17.00;99.90
11615;DHT22;5863;52.832;4.758;2022-09-30T10:04:29;17.00;99.90
11615;DHT22;5863;52.832;4.758;2022-09-30T10:06:58;17.10;99.90
11615;DHT22;5863;52.832;4.758;2022-09-30T10:09:31;17.20;99.90
11615;DHT22;5863;52.832;4.758;2022-09-30T10:12:16;17.20;99.90
11615;DHT22;5863;52.832;4.758;2022-09-30T10:14:49;17.30;99.90
11615;DHT22;5863;52.832;4.758;2022-09-30T10:17:21;17.40;99.90
11615;DHT22;5863;52.832;4.758;2022-09-30T10:19:53;17.30;99.90
11615;DHT22;5863;52.832;4.758;2022-09-30T10:22:25;17.40;99.90
11615;DHT22;5863;52.832;4.758;2022-09-30T10:25:08;17.60;99.90
11615;DHT22;5863;52.832;4.758;2022-09-30T10:27:36;17.60;99.90
11615;DHT22;5863;52.832;4.758;2022-09-30T10:30:04;17.50;99.90
11615;DHT22;5863;52.832;4.758;2022-09-30T10:32:32;17.60;99.90
11615;DHT22;5863;52.832;4.758;2022-09-30T10:35:02;17.80;99.90
11615;DHT22;5863;52.832;4.758;2022-09-30T10:37:30;17.80;99.90
11615;DHT22;5863;52.832;4.758;2022-09-30T10:40:00;17.90;99.90
11615;DHT22;5863;52.832;4.758;2022-09-30T10:42:29;18.00;99.90
11615;DHT22;5863;52.832;4.758;2022-09-30T10:45:00;18.00;99.90
11615;DHT22;5863;52.832;4.758;2022-09-30T10:47:32;18.00;99.90
11615;DHT22;5863;52.832;4.758;2022-09-30T10:50:02;18.20;99.90
11615;DHT22;5863;52.832;4.758;2022-09-30T10:52:34;18.20;99.90
11615;DHT22;5863;52.832;4.758;2022-09-30T10:55:05;18.20;99.90
11615;DHT22;5863;52.832;4.758;2022-09-30T10:57:35;18.20;99.90
11615;DHT22;5863;52.832;4.758;2022-09-30T11:00:05;18.20;99.90
11615;DHT22;5863;52.832;4.758;2022-09-30T11:02:38;18.10;99.90
11615;DHT22;5863;52.832;4.758;2022-09-30T11:05:14;18.00;99.90
11615;DHT22;5863;52.832;4.758;2022-09-30T11:07:48;18.10;99.90
11615;DHT22;5863;52.832;4.758;2022-09-30T11:10:30;18.10;99.90
11615;DHT22;5863;52.832;4.758;2022-09-30T11:13:03;18.10;99.90
11615;DHT22;5863;52.832;4.758;2022-09-30T11:15:37;18.10;99.90
11615;DHT22;5863;52.832;4.758;2022-09-30T11:18:15;18.10;99.90
11615;DHT22;5863;52.832;4.758;2022-09-30T11:20:48;18.00;99.90
11615;DHT22;5863;52.832;4.758;2022-09-30T11:23:19;18.00;99.90
11615;DHT22;5863;52.832;4.758;2022-09-30T11:25:53;17.90;99.90
11615;DHT22;5863;52.832;4.758;2022-09-30T11:28:43;18.00;99.90
11615;DHT22;5863;52.832;4.758;2022-09-30T11:31:19;17.90;99.90
11615;DHT22;5863;52.832;4.758;2022-09-30T11:34:01;18.00;99.90
11615;DHT22;5863;52.832;4.758;2022-09-30T11:36:36;18.00;99.90
11615;DHT22;5863;52.832;4.758;2022-09-30T11:39:29;17.90;99.90
11615;DHT22;5863;52.832;4.758;2022-09-30T11:42:06;17.80;99.90
11615;DHT22;5863;52.832;4.758;2022-09-30T11:44:37;17.80;99.90
11615;DHT22;5863;52.832;4.758;2022-09-30T11:50:25;17.90;99.90
11615;DHT22;5863;52.832;4.758;2022-09-30T11:53:02;17.90;99.90
11615;DHT22;5863;52.832;4.758;2022-09-30T11:55:50;17.80;99.90
11615;DHT22;5863;52.832;4.758;2022-09-30T11:58:23;17.60;99.90
11615;DHT22;5863;52.832;4.758;2022-09-30T12:00:56;17.50;99.90
11615;DHT22;5863;52.832;4.758;2022-09-30T12:03:28;17.50;99.90
11615;DHT22;5863;52.832;4.758;2022-09-30T12:06:03;17.60;99.90
11615;DHT22;5863;52.832;4.758;2022-09-30T12:08:41;17.50;99.90
11615;DHT22;5863;52.832;4.758;2022-09-30T12:11:19;17.50;99.90
11615;DHT22;5863;52.832;4.758;2022-09-30T12:13:50;17.50;99.90
11615;DHT22;5863;52.832;4.758;2022-09-30T12:16:19;17.40;99.90
11615;DHT22;5863;52.832;4.758;2022-09-30T12:18:52;17.40;99.90
11615;DHT22;5863;52.832;4.758;2022-09-30T12:21:24;17.30;99.90
11615;DHT22;5863;52.832;4.758;2022-09-30T12:23:58;17.40;99.90
11615;DHT22;5863;52.832;4.758;2022-09-30T12:26:27;17.50;99.90
11615;DHT22;5863;52.832;4.758;2022-09-30T12:28:56;17.60;99.90
11615;DHT22;5863;52.832;4.758;2022-09-30T12:32:03;17.50;99.90
11615;DHT22;5863;52.832;4.758;2022-09-30T12:34:48;17.50;99.90
11615;DHT22;5863;52.832;4.758;2022-09-30T12:37:35;17.40;99.90
11615;DHT22;5863;52.832;4.758;2022-09-30T12:40:21;17.40;99.90
11615;DHT22;5863;52.832;4.758;2022-09-30T12:46:03;17.30;99.90
11615;DHT22;5863;52.832;4.758;2022-09-30T12:48:37;17.30;99.90
11615;DHT22;5863;52.832;4.758;2022-09-30T12:51:05;17.30;99.90
11615;DHT22;5863;52.832;4.758;2022-09-30T12:53:36;17.30;99.90
11615;DHT22;5863;52.832;4.758;2022-09-30T12:56:05;17.40;99.90
11615;DHT22;5863;52.832;4.758;2022-09-30T12:58:35;17.30;99.90
11615;DHT22;5863;52.832;4.758;2022-09-30T13:01:05;17.30;99.90
11615;DHT22;5863;52.832;4.758;2022-09-30T13:03:48;17.40;99.90
11615;DHT22;5863;52.832;4.758;2022-09-30T13:06:17;17.40;99.90
11615;DHT22;5863;52.832;4.758;2022-09-30T13:09:05;17.40;99.90
11615;DHT22;5863;52.832;4.758;2022-09-30T13:11:38;17.40;99.90
11615;DHT22;5863;52.832;4.758;2022-09-30T13:14:29;17.30;99.90
11615;DHT22;5863;52.832;4.758;2022-09-30T13:20:00;17.20;99.90
11615;DHT22;5863;52.832;4.758;2022-09-30T13:22:57;17.20;99.90
11615;DHT22;5863;52.832;4.758;2022-09-30T13:25:25;17.30;99.90
11615;DHT22;5863;52.832;4.758;2022-09-30T13:28:24;17.20;99.90
11615;DHT22;5863;52.832;4.758;2022-09-30T13:31:11;17.20;99.90
11615;DHT22;5863;52.832;4.758;2022-09-30T13:33:42;17.30;99.90
11615;DHT22;5863;52.832;4.758;2022-09-30T13:36:26;17.30;99.90
11615;DHT22;5863;52.832;4.758;2022-09-30T13:39:17;17.30;99.90
11615;DHT22;5863;52.832;4.758;2022-09-30T13:41:49;17.20;99.90
11615;DHT22;5863;52.832;4.758;2022-09-30T13:44:24;17.20;99.90
11615;DHT22;5863;52.832;4.758;2022-09-30T13:46:55;17.20;99.90
11615;DHT22;5863;52.832;4.758;2022-09-30T13:49:38;17.20;99.90
11615;DHT22;5863;52.832;4.758;2022-09-30T13:52:08;17.30;99.90
11615;DHT22;5863;52.832;4.758;2022-09-30T13:54:41;17.30;99.90
11615;DHT22;5863;52.832;4.758;2022-09-30T13:57:18;17.40;99.90
11615;DHT22;5863;52.832;4.758;2022-09-30T13:59:58;17.40;99.90
11615;DHT22;5863;52.832;4.758;2022-09-30T14:02:43;17.50;99.90
11615;DHT22;5863;52.832;4.758;2022-09-30T14:05:40;17.50;99.90
11615;DHT22;5863;52.832;4.758;2022-09-30T14:08:30;17.30;99.90
11615;DHT22;5863;52.832;4.758;2022-09-30T14:11:10;17.20;99.90
11615;DHT22;5863;52.832;4.758;2022-09-30T14:13:57;17.20;99.90
11615;DHT22;5863;52.832;4.758;2022-09-30T14:16:43;17.20;99.90
11615;DHT22;5863;52.832;4.758;2022-09-30T14:19:30;17.20;99.90
11615;DHT22;5863;52.832;4.758;2022-09-30T14:22:02;17.20;99.90
11615;DHT22;5863;52.832;4.758;2022-09-30T14:24:33;17.10;99.90
11615;DHT22;5863;52.832;4.758;2022-09-30T14:27:13;17.10;99.90
11615;DHT22;5863;52.832;4.758;2022-09-30T14:29:51;17.10;99.90
11615;DHT22;5863;52.832;4.758;2022-09-30T14:32:23;17.10;99.90
11615;DHT22;5863;52.832;4.758;2022-09-30T14:34:52;17.10;99.90
11615;DHT22;5863;52.832;4.758;2022-09-30T14:37:24;17.10;99.90
11615;DHT22;5863;52.832;4.758;2022-09-30T14:39:51;17.10;99.90
11615;DHT22;5863;52.832;4.758;2022-09-30T14:42:24;17.10;99.90
11615;DHT22;5863;52.832;4.758;2022-09-30T14:44:55;17.20;99.90
11615;DHT22;5863;52.832;4.758;2022-09-30T14:47:30;17.20;99.90
11615;DHT22;5863;52.832;4.758;2022-09-30T14:49:58;17.20;99.90
11615;DHT22;5863;52.832;4.758;2022-09-30T14:52:35;17.10;99.90
11615;DHT22;5863;52.832;4.758;2022-09-30T14:55:02;17.20;99.90
11615;DHT22;5863;52.832;4.758;2022-09-30T14:57:29;17.30;99.90
11615;DHT22;5863;52.832;4.758;2022-09-30T15:00:20;17.30;99.90
11615;DHT22;5863;52.832;4.758;2022-09-30T15:02:48;17.30;99.90
11615;DHT22;5863;52.832;4.758;2022-09-30T15:05:15;17.20;99.90
11615;DHT22;5863;52.832;4.758;2022-09-30T15:07:43;17.20;99.90
11615;DHT22;5863;52.832;4.758;2022-09-30T15:10:16;17.10;99.90
11615;DHT22;5863;52.832;4.758;2022-09-30T15:12:45;17.00;99.90
11615;DHT22;5863;52.832;4.758;2022-09-30T15:15:31;16.90;99.90
11615;DHT22;5863;52.832;4.758;2022-09-30T15:17:58;16.80;99.90
11615;DHT22;5863;52.832;4.758;2022-09-30T15:20:30;16.70;99.90
11615;DHT22;5863;52.832;4.758;2022-09-30T15:22:59;16.70;99.90
11615;DHT22;5863;52.832;4.758;2022-09-30T15:25:28;16.70;99.90
11615;DHT22;5863;52.832;4.758;2022-09-30T15:27:55;16.60;99.90
11615;DHT22;5863;52.832;4.758;2022-09-30T15:30:25;16.50;99.90
11615;DHT22;5863;52.832;4.758;2022-09-30T15:33:01;16.40;99.90
11615;DHT22;5863;52.832;4.758;2022-09-30T15:35:29;16.40;99.90
11615;DHT22;5863;52.832;4.758;2022-09-30T15:38:06;16.40;99.90
11615;DHT22;5863;52.832;4.758;2022-09-30T15:40:33;16.30;99.90
11615;DHT22;5863;52.832;4.758;2022-09-30T15:43:15;16.20;99.90
11615;DHT22;5863;52.832;4.758;2022-09-30T15:45:53;16.20;99.90
11615;DHT22;5863;52.832;4.758;2022-09-30T15:48:32;16.20;99.90
11615;DHT22;5863;52.832;4.758;2022-09-30T15:54:29;16.00;99.90
11615;DHT22;5863;52.832;4.758;2022-09-30T15:56:59;16.00;99.90
11615;DHT22;5863;52.832;4.758;2022-09-30T15:59:57;16.00;99.90
11615;DHT22;5863;52.832;4.758;2022-09-30T16:02:26;16.00;99.90
11615;DHT22;5863;52.832;4.758;2022-09-30T16:04:53;15.90;99.90
11615;DHT22;5863;52.832;4.758;2022-09-30T16:07:20;15.90;99.90
11615;DHT22;5863;52.832;4.758;2022-09-30T16:09:52;15.90;99.90
11615;DHT22;5863;52.832;4.758;2022-09-30T16:12:22;15.80;99.90
11615;DHT22;5863;52.832;4.758;2022-09-30T16:14:52;15.90;99.90
11615;DHT22;5863;52.832;4.758;2022-09-30T16:17:22;15.90;99.90
11615;DHT22;5863;52.832;4.758;2022-09-30T16:19:51;15.90;99.90
11615;DHT22;5863;52.832;4.758;2022-09-30T16:22:47;15.90;99.90
11615;DHT22;5863;52.832;4.758;2022-09-30T16:25:19;15.90;99.90
11615;DHT22;5863;52.832;4.758;2022-09-30T16:27:47;15.90;99.90
11615;DHT22;5863;52.832;4.758;2022-09-30T16:30:16;15.80;99.90
11615;DHT22;5863;52.832;4.758;2022-09-30T16:32:44;15.80;99.90
11615;DHT22;5863;52.832;4.758;2022-09-30T16:35:17;15.80;99.90
11615;DHT22;5863;52.832;4.758;2022-09-30T16:37:45;15.70;99.90